Time,TemperatureF,DewpointF,PressureIn,WindDirection,WindDirectionDegrees,WindSpeedMPH,WindSpeedGustMPH,Humidity,HourlyPrecipIn,Conditions,Clouds,dailyrainin,SolarRadiationWatts/m^2,SoftwareType,DateUTC
2013-07-25 00:04:00,60.6,59.7,29.89,SSE,154,0.0,0.0,97,0.00,CLR,CLR,0.00,0.0,WeatherDisplay:10.37,2013-07-25 04:04:00,
2013-07-25 00:09:00,60.7,59.8,29.89,SSE,154,0.0,0.0,97,0.00,CLR,CLR,0.00,0.0,WeatherDisplay:10.37,2013-07-25 04:09:00,
2013-07-25 00:14:00,60.7,59.8,29.89,SSE,154,0.0,0.0,97,0.00,CLR,CLR,0.00,0.0,WeatherDisplay:10.37,2013-07-25 04:14:00,
2013-07-25 00:19:00,60.6,59.7,29.89,SSE,154,0.0,0.0,97,0.00,CLR,CLR,0.00,0.0,WeatherDisplay:10.37,2013-07-25 04:19:00,
2013-07-25 00:23:00,60.5,59.6,29.89,SSE,154,0.0,0.0,97,0.00,CLR,CLR,0.00,0.0,WeatherDisplay:10.37,2013-07-25 04:23:00,
2013-07-25 00:28:00,60.3,59.5,29.89,SSE,153,0.0,0.0,97,0.00,CLR,CLR,0.00,0.0,WeatherDisplay:10.37,2013-07-25 04:28:00,
2013-07-25 00:34:00,60.3,59.4,29.89,SSE,154,0.0,0.0,97,0.00,CLR,CLR,0.00,0.0,WeatherDisplay:10.37,2013-07-25 04:34:00,
2013-07-25 00:39:00,60.2,59.4,29.89,SSE,154,0.0,0.0,97,0.00,CLR,CLR,0.00,0.0,WeatherDisplay:10.37,2013-07-25 04:39:00,
2013-07-25 00:44:00,60.3,59.4,29.90,SSE,154,0.0,1.0,97,0.00,CLR,CLR,0.00,0.0,WeatherDisplay:10.37,2013-07-25 04:44:00,
2013-07-25 00:49:00,60.1,59.2,29.90,SSE,154,0.0,1.0,97,0.00,CLR,CLR,0.00,0.0,WeatherDisplay:10.37,2013-07-25 04:49:00,
2013-07-25 00:59:00,59.9,59.0,29.90,SSE,154,0.0,0.0,97,0.00,CLR,CLR,0.00,0.0,WeatherDisplay:10.37,2013-07-25 04:59:00,
2013-07-25 01:04:00,59.9,59.0,29.90,SSE,154,0.0,0.0,97,0.00,CLR,CLR,0.00,0.0,WeatherDisplay:10.37,2013-07-25 05:04:00,
2013-07-25 01:09:00,59.8,58.9,29.90,SSE,153,0.0,0.0,97,0.00,CLR,CLR,0.00,0.0,WeatherDisplay:10.37,2013-07-25 05:09:00,
2013-07-25 01:19:00,59.7,58.8,29.90,SSE,154,0.0,0.0,97,0.00,CLR,CLR,0.00,0.0,WeatherDisplay:10.37,2013-07-25 05:19:00,
2013-07-25 01:29:00,59.5,58.6,29.90,SSE,153,0.0,0.0,97,0.00,CLR,CLR,0.00,0.0,WeatherDisplay:10.37,2013-07-25 05:29:00,
2013-07-25 01:38:00,59.4,58.5,29.90,SSE,154,0.0,0.0,97,0.00,CLR,CLR,0.00,0.0,WeatherDisplay:10.37,2013-07-25 05:38:00,
2013-07-25 01:44:00,59.3,58.4,29.90,SSE,153,0.0,0.0,97,0.00,CLR,CLR,0.00,0.0,WeatherDisplay:10.37,2013-07-25 05:44:00,
2013-07-25 01:49:00,59.1,58.3,29.90,SSE,154,0.0,0.0,97,0.00,CLR,CLR,0.00,0.0,WeatherDisplay:10.37,2013-07-25 05:49:00,
2013-07-25 01:59:00,59.0,58.2,29.90,SSE,154,0.0,0.0,97,0.00,CLR,CLR,0.00,0.0,WeatherDisplay:10.37,2013-07-25 05:59:00,
2013-07-25 02:04:00,59.0,58.2,29.90,SSE,153,0.0,0.0,97,0.00,CLR,CLR,0.00,0.0,WeatherDisplay:10.37,2013-07-25 06:04:00,
2013-07-25 02:09:00,59.0,58.2,29.90,SSE,154,0.0,0.0,97,0.00,CLR,CLR,0.00,0.0,WeatherDisplay:10.37,2013-07-25 06:09:00,
2013-07-25 02:14:00,58.8,58.0,29.90,SSE,154,0.0,0.0,97,0.00,CLR,CLR,0.00,0.0,WeatherDisplay:10.37,2013-07-25 06:14:00,
2013-07-25 02:19:00,58.9,58.1,29.89,SSE,153,0.0,0.0,97,0.00,CLR,CLR,0.00,0.0,WeatherDisplay:10.37,2013-07-25 06:19:00,
2013-07-25 02:24:00,58.8,58.0,29.89,SSE,153,0.0,0.0,97,0.00,CLR,CLR,0.00,0.0,WeatherDisplay:10.37,2013-07-25 06:24:00,
2013-07-25 02:29:00,58.7,57.9,29.89,SSE,154,0.0,0.0,97,0.00,CLR,CLR,0.00,0.0,WeatherDisplay:10.37,2013-07-25 06:29:00,
2013-07-25 02:39:00,58.5,57.7,29.89,SSE,154,0.0,0.0,97,0.00,CLR,CLR,0.00,0.0,WeatherDisplay:10.37,2013-07-25 06:39:00,
2013-07-25 02:49:00,58.2,57.4,29.89,SSE,154,0.0,0.0,97,0.00,CLR,CLR,0.00,0.0,WeatherDisplay:10.37,2013-07-25 06:49:00,
2013-07-25 02:59:00,58.1,57.3,29.89,SSE,153,0.0,0.0,97,0.00,CLR,CLR,0.00,0.0,WeatherDisplay:10.37,2013-07-25 06:59:00,
2013-07-25 03:04:00,58.1,57.2,29.89,SSE,153,0.0,0.0,97,0.00,CLR,CLR,0.00,0.0,WeatherDisplay:10.37,2013-07-25 07:04:00,
2013-07-25 03:14:00,58.0,57.2,29.89,SSE,154,0.0,0.0,97,0.00,CLR,CLR,0.00,0.0,WeatherDisplay:10.37,2013-07-25 07:14:00,
2013-07-25 03:19:00,57.9,57.1,29.89,SSE,153,0.0,0.0,97,0.00,CLR,CLR,0.00,0.0,WeatherDisplay:10.37,2013-07-25 07:19:00,
2013-07-25 03:29:00,57.8,57.0,29.88,SSE,154,0.0,0.0,97,0.00,CLR,CLR,0.00,0.0,WeatherDisplay:10.37,2013-07-25 07:29:00,
2013-07-25 03:39:00,57.9,57.1,29.88,SSE,153,0.0,0.0,97,0.00,CLR,CLR,0.00,0.0,WeatherDisplay:10.37,2013-07-25 07:39:00,
2013-07-25 03:49:00,57.9,57.3,29.88,SSE,154,0.0,0.0,98,0.00,CLR,CLR,0.00,0.0,WeatherDisplay:10.37,2013-07-25 07:49:00,
2013-07-25 03:59:00,58.0,57.2,29.88,SSE,154,0.0,0.0,97,0.00,CLR,CLR,0.00,0.0,WeatherDisplay:10.37,2013-07-25 07:59:00,
2013-07-25 04:08:00,57.9,57.3,29.88,SSE,154,0.0,0.0,98,0.00,CLR,CLR,0.00,0.0,WeatherDisplay:10.37,2013-07-25 08:08:00,
2013-07-25 04:13:00,57.7,57.1,29.88,SSE,154,0.0,0.0,98,0.00,CLR,CLR,0.00,0.0,WeatherDisplay:10.37,2013-07-25 08:13:00,
2013-07-25 04:19:00,57.6,56.8,29.89,SSE,154,0.0,0.0,97,0.00,CLR,CLR,0.00,0.0,WeatherDisplay:10.37,2013-07-25 08:19:00,
2013-07-25 04:29:00,57.2,56.4,29.89,SSE,154,0.0,0.0,97,0.00,CLR,CLR,0.00,0.0,WeatherDisplay:10.37,2013-07-25 08:29:00,
2013-07-25 04:39:00,57.2,56.6,29.88,SSE,154,0.0,0.0,98,0.00,CLR,CLR,0.00,0.0,WeatherDisplay:10.37,2013-07-25 08:39:00,
2013-07-25 04:49:00,57.1,56.5,29.89,SSE,154,0.0,0.0,98,0.00,CLR,CLR,0.00,0.0,WeatherDisplay:10.37,2013-07-25 08:49:00,
2013-07-25 04:59:00,57.1,56.5,29.89,SSE,154,0.0,0.0,98,0.00,CLR,CLR,0.00,0.0,WeatherDisplay:10.37,2013-07-25 08:59:00,
2013-07-25 05:09:00,56.9,56.1,29.89,SSE,153,0.0,0.0,97,0.00,CLR,CLR,0.00,0.0,WeatherDisplay:10.37,2013-07-25 09:09:00,
2013-07-25 05:18:00,56.9,56.1,29.89,SSE,154,0.0,0.0,97,0.00,CLR,CLR,0.00,0.0,WeatherDisplay:10.37,2013-07-25 09:18:00,
2013-07-25 05:24:00,56.8,56.0,29.89,SSE,154,0.0,0.0,97,0.00,CLR,CLR,0.00,0.0,WeatherDisplay:10.37,2013-07-25 09:24:00,
2013-07-25 05:29:00,56.8,55.9,29.90,SSE,153,0.0,0.0,97,0.00,CLR,CLR,0.00,0.0,WeatherDisplay:10.37,2013-07-25 09:29:00,
2013-07-25 05:39:00,56.7,56.1,29.90,SSE,154,0.0,0.0,98,0.00,,,0.01,0.0,WeatherDisplay:10.37,2013-07-25 09:39:00,
2013-07-25 05:49:00,56.7,56.1,29.90,SSE,154,0.0,0.0,98,0.00,,,0.01,0.0,WeatherDisplay:10.37,2013-07-25 09:49:00,
2013-07-25 05:58:00,56.6,56.0,29.91,SSE,154,0.0,0.0,98,0.00,,,0.01,0.0,WeatherDisplay:10.37,2013-07-25 09:58:00,
2013-07-25 06:03:00,56.6,56.0,29.91,SSE,154,0.0,0.0,98,0.00,OVC,OVC,0.01,0.0,WeatherDisplay:10.37,2013-07-25 10:03:00,
2013-07-25 06:09:00,56.4,55.8,29.91,SSE,154,0.0,0.0,98,0.00,OVC,OVC,0.01,0.0,WeatherDisplay:10.37,2013-07-25 10:09:00,
2013-07-25 06:19:00,56.3,55.5,29.91,SSE,154,0.0,0.0,97,0.00,OVC,OVC,0.01,0.0,WeatherDisplay:10.37,2013-07-25 10:19:00,
2013-07-25 06:24:00,56.1,55.3,29.91,SSE,154,0.0,0.0,97,0.00,OVC,OVC,0.01,0.0,WeatherDisplay:10.37,2013-07-25 10:24:00,
2013-07-25 06:29:00,56.1,55.5,29.91,SSE,154,0.0,0.0,98,0.00,OVC,OVC,0.01,0.0,WeatherDisplay:10.37,2013-07-25 10:29:00,
2013-07-25 06:34:00,56.0,55.4,29.91,SSE,154,0.0,0.0,98,0.00,OVC,OVC,0.01,0.0,WeatherDisplay:10.37,2013-07-25 10:34:00,
2013-07-25 06:39:00,56.0,55.4,29.92,SSE,154,0.0,0.0,98,0.00,BKN,BKN,0.01,5.0,WeatherDisplay:10.37,2013-07-25 10:39:00,
2013-07-25 06:49:00,55.9,55.3,29.92,SSE,154,0.0,0.0,98,0.00,OVC,OVC,0.01,11.0,WeatherDisplay:10.37,2013-07-25 10:49:00,
2013-07-25 06:54:00,56.0,55.4,29.92,SSE,154,0.0,0.0,98,0.00,OVC,OVC,0.01,12.0,WeatherDisplay:10.37,2013-07-25 10:54:00,
2013-07-25 06:59:00,56.0,55.4,29.92,SSE,154,0.0,0.0,98,0.00,OVC,OVC,0.01,16.0,WeatherDisplay:10.37,2013-07-25 10:59:00,
2013-07-25 07:08:00,55.8,55.3,29.93,WNW,295,0.0,0.0,98,0.00,OVC,OVC,0.01,21.0,WeatherDisplay:10.37,2013-07-25 11:08:00,
2013-07-25 07:13:00,55.8,55.2,29.93,NW,311,0.0,0.0,98,0.00,OVC,OVC,0.01,25.0,WeatherDisplay:10.37,2013-07-25 11:13:00,
2013-07-25 07:19:00,55.9,55.3,29.93,NW,311,0.0,0.0,98,0.00,OVC,OVC,0.01,26.0,WeatherDisplay:10.37,2013-07-25 11:19:00,
2013-07-25 07:29:00,56.0,55.4,29.93,NW,311,0.0,0.0,98,0.00,OVC,OVC,0.01,30.0,WeatherDisplay:10.37,2013-07-25 11:29:00,
2013-07-25 07:34:00,56.2,55.6,29.94,NW,311,0.0,0.0,98,0.00,OVC,OVC,0.01,33.0,WeatherDisplay:10.37,2013-07-25 11:34:00,
2013-07-25 07:39:00,56.4,55.8,29.93,NW,311,0.0,0.0,98,0.00,OVC,OVC,0.01,37.0,WeatherDisplay:10.37,2013-07-25 11:39:00,
2013-07-25 07:44:00,56.6,56.1,29.94,NW,311,0.0,0.0,98,0.00,OVC,OVC,0.01,47.0,WeatherDisplay:10.37,2013-07-25 11:44:00,
2013-07-25 07:49:00,56.9,56.3,29.94,NW,311,0.0,0.0,98,0.00,OVC,OVC,0.01,56.0,WeatherDisplay:10.37,2013-07-25 11:49:00,
2013-07-25 07:59:00,57.9,57.4,29.94,NW,311,0.0,0.0,98,0.00,CLR,CLR,0.01,211.0,WeatherDisplay:10.37,2013-07-25 11:59:00,
2013-07-25 08:04:00,59.0,58.4,29.94,NW,311,0.0,0.0,98,0.00,FEW,FEW,0.01,225.0,WeatherDisplay:10.37,2013-07-25 12:04:00,
2013-07-25 08:09:00,59.5,58.9,29.94,NW,311,0.0,0.0,98,0.00,FEW,FEW,0.01,241.0,WeatherDisplay:10.37,2013-07-25 12:09:00,
2013-07-25 08:19:00,60.8,60.2,29.94,NW,311,0.0,0.0,98,0.00,FEW,FEW,0.01,272.0,WeatherDisplay:10.37,2013-07-25 12:19:00,
2013-07-25 08:24:00,61.5,60.9,29.95,NW,311,0.0,0.0,98,0.00,FEW,FEW,0.01,288.0,WeatherDisplay:10.37,2013-07-25 12:24:00,
2013-07-25 08:34:00,62.9,62.4,29.94,NW,311,0.0,0.0,98,0.00,FEW,FEW,0.01,318.0,WeatherDisplay:10.37,2013-07-25 12:34:00,
2013-07-25 08:39:00,63.8,62.9,29.95,NW,311,0.0,0.0,97,0.00,FEW,FEW,0.01,339.0,WeatherDisplay:10.37,2013-07-25 12:39:00,
2013-07-25 08:48:00,65.5,63.7,29.95,NW,311,0.0,0.0,94,0.00,CLR,CLR,0.01,380.0,WeatherDisplay:10.37,2013-07-25 12:48:00,
2013-07-25 08:54:00,66.3,63.9,29.95,NW,311,0.0,0.0,92,0.00,CLR,CLR,0.01,397.0,WeatherDisplay:10.37,2013-07-25 12:54:00,
2013-07-25 08:59:00,66.8,64.1,29.95,NW,311,0.0,0.0,91,0.00,CLR,CLR,0.01,417.0,WeatherDisplay:10.37,2013-07-25 12:59:00,
2013-07-25 09:04:00,67.2,64.4,29.95,NW,311,0.0,0.0,91,0.00,CLR,CLR,0.01,431.0,WeatherDisplay:10.37,2013-07-25 13:04:00,
2013-07-25 09:14:00,68.3,65.3,29.95,NW,311,0.0,0.0,90,0.00,CLR,CLR,0.01,466.0,WeatherDisplay:10.37,2013-07-25 13:14:00,
2013-07-25 09:19:00,69.0,65.3,29.96,North,1,0.0,1.0,88,0.00,CLR,CLR,0.01,482.0,WeatherDisplay:10.37,2013-07-25 13:19:00,
2013-07-25 09:24:00,69.3,65.3,29.96,NE,49,0.0,1.0,87,0.00,CLR,CLR,0.01,503.0,WeatherDisplay:10.37,2013-07-25 13:24:00,
2013-07-25 09:29:00,69.8,65.7,29.95,East,84,0.0,1.0,87,0.00,CLR,CLR,0.01,520.0,WeatherDisplay:10.37,2013-07-25 13:29:00,
2013-07-25 09:39:00,70.7,66.3,29.95,ESE,107,0.0,1.0,86,0.00,FEW,FEW,0.01,550.0,WeatherDisplay:10.37,2013-07-25 13:39:00,
2013-07-25 09:44:00,71.0,66.3,29.95,ESE,107,0.0,1.0,85,0.00,FEW,FEW,0.01,564.0,WeatherDisplay:10.37,2013-07-25 13:44:00,
2013-07-25 09:49:00,71.3,66.2,29.96,ESE,107,0.0,1.0,84,0.00,FEW,FEW,0.01,580.0,WeatherDisplay:10.37,2013-07-25 13:49:00,
2013-07-25 09:59:00,70.9,65.1,29.96,ESE,103,0.0,4.0,82,0.00,FEW,FEW,0.01,612.0,WeatherDisplay:10.37,2013-07-25 13:59:00,
2013-07-25 10:09:00,69.9,64.9,29.96,East,85,1.0,5.0,84,0.00,FEW,FEW,0.01,642.0,WeatherDisplay:10.37,2013-07-25 14:09:00,
2013-07-25 10:19:00,70.0,65.6,29.96,ESE,107,0.0,1.0,86,0.00,FEW,FEW,0.01,666.0,WeatherDisplay:10.37,2013-07-25 14:19:00,
2013-07-25 10:24:00,70.3,65.6,29.96,ESE,122,0.0,1.0,85,0.00,FEW,FEW,0.01,679.0,WeatherDisplay:10.37,2013-07-25 14:24:00,
2013-07-25 10:33:00,71.5,66.4,29.96,ESE,111,0.0,4.0,84,0.00,FEW,FEW,0.01,710.0,WeatherDisplay:10.37,2013-07-25 14:33:00,
2013-07-25 10:39:00,71.6,66.2,29.96,East,99,2.0,5.0,83,0.00,FEW,FEW,0.01,724.0,WeatherDisplay:10.37,2013-07-25 14:39:00,
2013-07-25 10:49:00,72.2,66.7,29.96,East,96,1.0,5.0,83,0.00,FEW,FEW,0.01,749.0,WeatherDisplay:10.37,2013-07-25 14:49:00,
2013-07-25 10:54:00,72.4,67.3,29.96,East,99,0.0,1.0,84,0.00,FEW,FEW,0.01,765.0,WeatherDisplay:10.37,2013-07-25 14:54:00,
2013-07-25 10:59:00,72.7,67.2,29.96,SE,140,0.0,5.0,83,0.00,FEW,FEW,0.01,805.0,WeatherDisplay:10.37,2013-07-25 14:59:00,
2013-07-25 11:04:00,73.1,67.3,29.96,SE,125,0.0,4.0,82,0.00,FEW,FEW,0.01,788.0,WeatherDisplay:10.37,2013-07-25 15:04:00,
2013-07-25 11:09:00,73.0,66.8,29.96,East,93,2.0,5.0,81,0.00,FEW,FEW,0.01,802.0,WeatherDisplay:10.37,2013-07-25 15:09:00,
2013-07-25 11:19:00,73.4,67.2,29.96,ESE,107,0.0,4.0,81,0.00,FEW,FEW,0.01,816.0,WeatherDisplay:10.37,2013-07-25 15:19:00,
2013-07-25 11:29:00,74.1,67.5,29.96,East,84,0.0,3.0,80,0.00,FEW,FEW,0.01,854.0,WeatherDisplay:10.37,2013-07-25 15:29:00,
2013-07-25 11:34:00,74.2,67.6,29.96,ESE,110,0.0,7.0,80,0.00,FEW,FEW,0.01,900.0,WeatherDisplay:10.37,2013-07-25 15:34:00,
2013-07-25 11:39:00,74.2,67.2,29.96,ESE,110,1.0,7.0,79,0.00,FEW,FEW,0.01,865.0,WeatherDisplay:10.37,2013-07-25 15:39:00,
2013-07-25 11:49:00,73.6,66.4,29.97,ESE,108,1.0,6.0,78,0.00,FEW,FEW,0.01,902.0,WeatherDisplay:10.37,2013-07-25 15:49:00,
2013-07-25 11:58:00,74.1,67.9,29.97,ENE,61,0.0,6.0,81,0.00,FEW,FEW,0.01,911.0,WeatherDisplay:10.37,2013-07-25 15:58:00,
2013-07-25 12:03:00,74.7,67.0,29.97,ESE,109,1.0,8.0,77,0.00,FEW,FEW,0.01,947.0,WeatherDisplay:10.37,2013-07-25 16:03:00,
2013-07-25 12:08:00,74.7,67.0,29.97,ESE,105,1.0,5.0,77,0.00,RA,RA,0.01,918.0,WeatherDisplay:10.37,2013-07-25 16:08:00,
2013-07-25 12:14:00,74.9,67.2,29.97,NE,45,3.0,6.0,77,0.00,RA,RA,0.01,926.0,WeatherDisplay:10.37,2013-07-25 16:14:00,
2013-07-25 12:19:00,74.7,65.9,29.97,NE,42,1.0,6.0,74,0.00,RA,RA,0.01,935.0,WeatherDisplay:10.37,2013-07-25 16:19:00,
2013-07-25 12:29:00,75.4,67.3,29.97,East,85,5.0,10.0,76,0.00,RA,RA,0.01,1018.0,WeatherDisplay:10.37,2013-07-25 16:29:00,
2013-07-25 12:34:00,75.5,67.1,29.97,ESE,115,1.0,5.0,75,0.00,RA,RA,0.01,1062.0,WeatherDisplay:10.37,2013-07-25 16:34:00,
2013-07-25 12:44:00,76.1,66.4,29.97,East,84,2.0,7.0,72,0.00,RA,RA,0.01,1009.0,WeatherDisplay:10.37,2013-07-25 16:44:00,
2013-07-25 12:49:00,76.0,66.3,29.97,ENE,68,1.0,6.0,72,0.00,RA,RA,0.01,1028.0,WeatherDisplay:10.37,2013-07-25 16:49:00,
2013-07-25 12:54:00,76.4,67.1,29.97,ENE,66,1.0,5.0,73,0.00,RA,RA,0.01,1039.0,WeatherDisplay:10.37,2013-07-25 16:54:00,
2013-07-25 12:59:00,77.0,66.4,29.97,East,80,1.0,5.0,70,0.00,RA,RA,0.01,330.0,WeatherDisplay:10.37,2013-07-25 16:59:00,
2013-07-25 13:04:00,76.7,67.0,29.97,East,84,1.0,6.0,72,0.00,RA,RA,0.01,315.0,WeatherDisplay:10.37,2013-07-25 17:04:00,
2013-07-25 13:09:00,76.4,66.7,29.97,SSE,156,0.0,4.0,72,0.00,RA,RA,0.01,304.0,WeatherDisplay:10.37,2013-07-25 17:09:00,
2013-07-25 13:19:00,76.1,67.2,29.97,SW,214,0.0,7.0,74,0.00,RA,RA,0.01,294.0,WeatherDisplay:10.37,2013-07-25 17:19:00,
2013-07-25 13:29:00,75.8,66.1,29.97,SE,137,0.0,1.0,72,0.00,RA,RA,0.01,698.0,WeatherDisplay:10.37,2013-07-25 17:29:00,
2013-07-25 13:34:00,75.5,65.9,29.97,ESE,113,1.0,5.0,72,0.00,RA,RA,0.01,290.0,WeatherDisplay:10.37,2013-07-25 17:34:00,
2013-07-25 13:39:00,75.4,66.5,29.97,SW,236,1.0,4.0,74,0.00,RA,RA,0.01,272.0,WeatherDisplay:10.37,2013-07-25 17:39:00,
2013-07-25 13:49:00,76.0,66.7,29.97,SSE,149,2.0,3.0,73,0.00,RA,RA,0.01,1164.0,WeatherDisplay:10.37,2013-07-25 17:49:00,
2013-07-25 13:59:00,76.5,66.4,29.97,East,85,1.0,5.0,71,0.00,RA,RA,0.01,346.0,WeatherDisplay:10.37,2013-07-25 17:59:00,
2013-07-25 14:04:00,76.8,67.5,29.97,East,80,1.0,4.0,73,0.00,RA,RA,0.01,1099.0,WeatherDisplay:10.37,2013-07-25 18:04:00,
2013-07-25 14:14:00,77.7,67.1,29.97,ENE,77,3.0,7.0,70,0.00,RA,RA,0.01,895.0,WeatherDisplay:10.37,2013-07-25 18:14:00,
2013-07-25 14:19:00,77.4,66.8,29.97,East,85,3.0,10.0,70,0.00,RA,RA,0.01,265.0,WeatherDisplay:10.37,2013-07-25 18:19:00,
2013-07-25 14:29:00,76.5,67.2,29.97,East,96,0.0,5.0,73,0.00,RA,RA,0.01,1134.0,WeatherDisplay:10.37,2013-07-25 18:29:00,
2013-07-25 14:34:00,77.3,67.1,29.97,ESE,109,1.0,5.0,71,0.00,RA,RA,0.01,359.0,WeatherDisplay:10.37,2013-07-25 18:34:00,
2013-07-25 14:43:00,77.8,67.2,29.97,NNE,32,1.0,6.0,70,0.00,RA,RA,0.01,257.0,WeatherDisplay:10.37,2013-07-25 18:43:00,
2013-07-25 14:48:00,77.1,66.6,29.97,NW,318,1.0,5.0,70,0.00,RA,RA,0.01,220.0,WeatherDisplay:10.37,2013-07-25 18:48:00,
2013-07-25 14:53:00,76.7,66.2,29.97,West,260,3.0,7.0,70,0.00,RA,RA,0.01,313.0,WeatherDisplay:10.37,2013-07-25 18:53:00,
2013-07-25 14:59:00,76.7,67.3,29.96,SSW,207,0.0,4.0,73,0.00,RA,RA,0.01,1079.0,WeatherDisplay:10.37,2013-07-25 18:59:00,
2013-07-25 15:04:00,77.4,66.9,29.97,WSW,237,5.0,12.0,70,0.00,RA,RA,0.01,1013.0,WeatherDisplay:10.37,2013-07-25 19:04:00,
2013-07-25 15:09:00,77.6,66.2,29.97,SW,230,6.0,12.0,68,0.00,RA,RA,0.01,343.0,WeatherDisplay:10.37,2013-07-25 19:09:00,
2013-07-25 15:19:00,77.1,66.2,29.97,South,188,5.0,7.0,69,0.00,RA,RA,0.01,227.0,WeatherDisplay:10.37,2013-07-25 19:19:00,
2013-07-25 15:29:00,76.7,65.8,29.97,SSE,168,0.0,3.0,69,0.00,RA,RA,0.01,181.0,WeatherDisplay:10.37,2013-07-25 19:29:00,
2013-07-25 15:39:00,76.6,66.5,29.97,SSE,168,1.0,4.0,71,0.00,RA,RA,0.01,376.0,WeatherDisplay:10.37,2013-07-25 19:39:00,
2013-07-25 15:44:00,76.7,67.0,29.97,SSW,205,2.0,4.0,72,0.00,RA,RA,0.01,895.0,WeatherDisplay:10.37,2013-07-25 19:44:00,
2013-07-25 15:48:00,77.1,67.3,29.97,SSW,199,0.0,2.0,72,0.00,RA,RA,0.01,879.0,WeatherDisplay:10.37,2013-07-25 19:48:00,
2013-07-25 15:54:00,77.7,67.2,29.96,WSW,238,1.0,4.0,70,0.00,RA,RA,0.01,844.0,WeatherDisplay:10.37,2013-07-25 19:54:00,
2013-07-25 15:58:00,78.3,67.7,29.97,WSW,238,2.0,7.0,70,0.00,RA,RA,0.01,849.0,WeatherDisplay:10.37,2013-07-25 19:58:00,
2013-07-25 16:04:00,78.5,66.2,29.96,SW,222,5.0,10.0,66,0.00,RA,RA,0.01,810.0,WeatherDisplay:10.37,2013-07-25 20:04:00,
2013-07-25 16:09:00,77.7,66.3,29.96,SSW,212,0.0,10.0,68,0.00,RA,RA,0.01,107.0,WeatherDisplay:10.37,2013-07-25 20:09:00,
2013-07-25 16:18:00,76.8,66.3,29.96,SW,233,2.0,5.0,70,0.00,RA,RA,0.01,795.0,WeatherDisplay:10.37,2013-07-25 20:18:00,
2013-07-25 16:23:00,77.2,67.0,29.96,WSW,237,2.0,9.0,71,0.00,RA,RA,0.01,777.0,WeatherDisplay:10.37,2013-07-25 20:23:00,
2013-07-25 16:28:00,77.7,67.2,29.96,SW,228,2.0,7.0,70,0.00,RA,RA,0.01,766.0,WeatherDisplay:10.37,2013-07-25 20:28:00,
2013-07-25 16:33:00,78.2,67.6,29.96,SW,235,2.0,7.0,70,0.00,RA,RA,0.01,752.0,WeatherDisplay:10.37,2013-07-25 20:33:00,
2013-07-25 16:39:00,78.3,67.7,29.97,SW,234,2.0,9.0,70,0.00,RA,RA,0.01,737.0,WeatherDisplay:10.37,2013-07-25 20:39:00,
2013-07-25 16:44:00,78.3,68.5,29.96,WSW,245,0.0,6.0,72,0.00,RA,RA,0.01,740.0,WeatherDisplay:10.37,2013-07-25 20:44:00,
2013-07-25 16:54:00,78.1,68.0,29.96,WSW,243,6.0,14.0,71,0.00,RA,RA,0.01,726.0,WeatherDisplay:10.37,2013-07-25 20:54:00,
2013-07-25 16:59:00,77.9,68.6,29.97,SW,230,1.0,10.0,73,0.00,RA,RA,0.01,698.0,WeatherDisplay:10.37,2013-07-25 20:59:00,
2013-07-25 17:04:00,77.6,67.9,29.97,WSW,248,8.0,12.0,72,0.00,RA,RA,0.01,698.0,WeatherDisplay:10.37,2013-07-25 21:04:00,
2013-07-25 17:14:00,76.7,67.0,29.96,SW,231,2.0,10.0,72,0.00,RA,RA,0.01,162.0,WeatherDisplay:10.37,2013-07-25 21:14:00,
2013-07-25 17:19:00,76.2,67.7,29.96,SW,227,7.0,12.0,75,0.00,RA,RA,0.01,220.0,WeatherDisplay:10.37,2013-07-25 21:19:00,
2013-07-25 17:24:00,75.5,67.8,29.96,WSW,238,0.0,9.0,77,0.00,RA,RA,0.01,186.0,WeatherDisplay:10.37,2013-07-25 21:24:00,
2013-07-25 17:29:00,75.3,68.7,29.97,SW,230,0.0,5.0,80,0.00,RA,RA,0.01,130.0,WeatherDisplay:10.37,2013-07-25 21:29:00,
2013-07-25 17:39:00,74.5,69.0,29.97,SW,225,0.0,4.0,83,0.00,RA,RA,0.01,114.0,WeatherDisplay:10.37,2013-07-25 21:39:00,
2013-07-25 17:49:00,73.6,68.1,29.97,SSE,157,0.0,4.0,83,0.01,RA,RA,0.02,155.0,WeatherDisplay:10.37,2013-07-25 21:49:00,
2013-07-25 17:59:00,73.2,69.1,29.97,SW,227,0.0,5.0,87,0.00,RA,RA,0.02,243.0,WeatherDisplay:10.37,2013-07-25 21:59:00,
2013-07-25 18:04:00,72.6,66.1,29.97,SSE,157,3.0,7.0,80,0.00,RA,RA,0.02,211.0,WeatherDisplay:10.37,2013-07-25 22:04:00,
2013-07-25 18:09:00,71.3,65.2,29.97,ENE,75,1.0,5.0,81,0.00,RA,RA,0.02,172.0,WeatherDisplay:10.37,2013-07-25 22:09:00,
2013-07-25 18:14:00,70.9,65.5,29.97,North,4,1.0,5.0,83,0.00,RA,RA,0.02,121.0,WeatherDisplay:10.37,2013-07-25 22:14:00,
2013-07-25 18:19:00,70.8,65.4,29.97,NW,317,0.0,1.0,83,0.00,RA,RA,0.02,371.0,WeatherDisplay:10.37,2013-07-25 22:19:00,
2013-07-25 18:29:00,72.4,67.3,29.98,WSW,241,0.0,3.0,84,0.00,RA,RA,0.02,371.0,WeatherDisplay:10.37,2013-07-25 22:29:00,
2013-07-25 18:39:00,72.7,65.8,29.98,East,83,2.0,7.0,79,0.00,RA,RA,0.02,343.0,WeatherDisplay:10.37,2013-07-25 22:39:00,
2013-07-25 18:44:00,72.4,65.2,29.98,East,101,1.0,5.0,78,0.00,RA,RA,0.02,323.0,WeatherDisplay:10.37,2013-07-25 22:44:00,
2013-07-25 18:49:00,72.2,64.9,29.98,East,97,0.0,5.0,78,0.00,RA,RA,0.02,292.0,WeatherDisplay:10.37,2013-07-25 22:49:00,
2013-07-25 18:54:00,72.1,64.9,29.98,East,83,0.0,1.0,78,0.00,RA,RA,0.02,288.0,WeatherDisplay:10.37,2013-07-25 22:54:00,
2013-07-25 18:59:00,72.1,65.2,29.99,ENE,73,0.0,1.0,79,0.00,RA,RA,0.02,274.0,WeatherDisplay:10.37,2013-07-25 22:59:00,
2013-07-25 19:04:00,71.9,64.7,29.99,East,99,1.0,5.0,78,0.00,RA,RA,0.02,169.0,WeatherDisplay:10.37,2013-07-25 23:04:00,
2013-07-25 19:09:00,71.7,64.5,29.99,ESE,120,0.0,5.0,78,0.00,RA,RA,0.02,186.0,WeatherDisplay:10.37,2013-07-25 23:09:00,
2013-07-25 19:19:00,71.3,64.4,30.00,East,101,0.0,1.0,79,0.00,RA,RA,0.02,118.0,WeatherDisplay:10.37,2013-07-25 23:19:00,
2013-07-25 19:29:00,71.2,65.4,30.01,East,101,0.0,0.0,82,0.00,RA,RA,0.03,69.0,WeatherDisplay:10.37,2013-07-25 23:29:00,
2013-07-25 19:39:00,70.8,65.4,30.00,East,101,0.0,0.0,83,0.00,RA,RA,0.03,95.0,WeatherDisplay:10.37,2013-07-25 23:39:00,
2013-07-25 19:49:00,70.4,64.6,30.00,East,101,0.0,2.0,82,0.00,RA,RA,0.03,47.0,WeatherDisplay:10.37,2013-07-25 23:49:00,
2013-07-25 19:58:00,70.0,65.0,30.01,East,101,0.0,1.0,84,0.00,RA,RA,0.03,40.0,WeatherDisplay:10.37,2013-07-25 23:58:00,
2013-07-25 20:04:00,69.7,64.9,30.01,East,101,0.0,1.0,85,0.00,RA,RA,0.03,26.0,WeatherDisplay:10.37,2013-07-26 00:04:00,
2013-07-25 20:09:00,69.3,64.9,30.01,East,101,0.0,1.0,86,0.00,RA,RA,0.03,23.0,WeatherDisplay:10.37,2013-07-26 00:09:00,
2013-07-25 20:19:00,68.8,64.5,30.01,East,101,1.0,3.0,86,0.00,RA,RA,0.03,11.0,WeatherDisplay:10.37,2013-07-26 00:19:00,
2013-07-25 20:24:00,68.4,63.7,30.01,East,101,0.0,1.0,85,0.00,RA,RA,0.03,7.0,WeatherDisplay:10.37,2013-07-26 00:24:00,
2013-07-25 20:33:00,67.9,63.9,30.01,East,101,0.0,0.0,87,0.00,RA,RA,0.03,5.0,WeatherDisplay:10.37,2013-07-26 00:33:00,
2013-07-25 20:39:00,67.8,63.8,30.01,East,101,0.0,0.0,87,0.00,RA,RA,0.03,0.0,WeatherDisplay:10.37,2013-07-26 00:39:00,
2013-07-25 20:49:00,67.4,63.8,30.02,East,101,0.0,1.0,88,0.00,RA,RA,0.03,0.0,WeatherDisplay:10.37,2013-07-26 00:49:00,
2013-07-25 20:54:00,67.3,63.6,30.01,East,101,0.0,0.0,88,0.00,RA,RA,0.03,0.0,WeatherDisplay:10.37,2013-07-26 00:54:00,
2013-07-25 21:04:00,66.5,62.8,30.02,East,101,0.0,0.0,88,0.00,RA,RA,0.03,0.0,WeatherDisplay:10.37,2013-07-26 01:04:00,
2013-07-25 21:09:00,66.4,62.7,30.02,East,101,0.0,0.0,88,0.00,RA,RA,0.03,0.0,WeatherDisplay:10.37,2013-07-26 01:09:00,
2013-07-25 21:19:00,66.3,63.3,30.03,East,101,0.0,1.0,90,0.00,RA,RA,0.03,0.0,WeatherDisplay:10.37,2013-07-26 01:19:00,
2013-07-25 21:29:00,66.0,63.0,30.04,East,101,0.0,1.0,90,0.00,RA,RA,0.03,0.0,WeatherDisplay:10.37,2013-07-26 01:29:00,
2013-07-25 21:38:00,65.7,62.7,30.04,East,101,0.0,0.0,90,0.00,RA,RA,0.03,0.0,WeatherDisplay:10.37,2013-07-26 01:38:00,
2013-07-25 21:43:00,65.4,62.7,30.04,East,101,0.0,1.0,91,0.00,RA,RA,0.03,0.0,WeatherDisplay:10.37,2013-07-26 01:43:00,
2013-07-25 21:48:00,65.1,62.7,30.04,East,101,0.0,1.0,92,0.00,RA,RA,0.03,0.0,WeatherDisplay:10.37,2013-07-26 01:48:00,
2013-07-25 21:53:00,65.0,62.6,30.05,East,101,0.0,1.0,92,0.00,RA,RA,0.03,0.0,WeatherDisplay:10.37,2013-07-26 01:53:00,
2013-07-25 21:59:00,64.9,62.8,30.05,East,101,0.0,0.0,93,0.00,RA,RA,0.03,0.0,WeatherDisplay:10.37,2013-07-26 01:59:00,
2013-07-25 22:04:00,64.9,62.8,30.05,East,101,0.0,0.0,93,0.00,RA,RA,0.03,0.0,WeatherDisplay:10.37,2013-07-26 02:04:00,
2013-07-25 22:09:00,64.8,62.7,30.05,East,101,0.0,0.0,93,0.00,RA,RA,0.03,0.0,WeatherDisplay:10.37,2013-07-26 02:09:00,
2013-07-25 22:14:00,64.7,62.6,30.05,East,101,0.0,0.0,93,0.00,RA,RA,0.03,0.0,WeatherDisplay:10.37,2013-07-26 02:14:00,
2013-07-25 22:19:00,64.6,62.5,30.05,East,101,0.0,0.0,93,0.00,RA,RA,0.03,0.0,WeatherDisplay:10.37,2013-07-26 02:19:00,
2013-07-25 22:24:00,64.4,62.3,30.06,East,101,0.0,0.0,93,0.00,RA,RA,0.03,0.0,WeatherDisplay:10.37,2013-07-26 02:24:00,
2013-07-25 22:29:00,64.3,62.2,30.05,East,101,0.0,0.0,93,0.00,RA,RA,0.03,0.0,WeatherDisplay:10.37,2013-07-26 02:29:00,
2013-07-25 22:34:00,64.3,62.5,30.05,East,101,0.0,0.0,94,0.00,RA,RA,0.03,0.0,WeatherDisplay:10.37,2013-07-26 02:34:00,
2013-07-25 22:39:00,64.2,62.4,30.05,East,101,0.0,1.0,94,0.00,RA,RA,0.03,0.0,WeatherDisplay:10.37,2013-07-26 02:39:00,
2013-07-25 22:49:00,64.0,62.2,30.05,East,101,0.0,0.0,94,0.00,RA,RA,0.03,0.0,WeatherDisplay:10.37,2013-07-26 02:49:00,
2013-07-25 22:58:00,63.6,61.8,30.05,East,101,0.0,0.0,94,0.00,RA,RA,0.03,0.0,WeatherDisplay:10.37,2013-07-26 02:58:00,
2013-07-25 23:04:00,63.4,61.6,30.05,East,101,0.0,0.0,94,0.00,RA,RA,0.03,0.0,WeatherDisplay:10.37,2013-07-26 03:04:00,
2013-07-25 23:09:00,63.3,61.5,30.04,East,101,0.0,0.0,94,0.00,RA,RA,0.03,0.0,WeatherDisplay:10.37,2013-07-26 03:09:00,
2013-07-25 23:19:00,63.0,61.2,30.04,East,101,0.0,1.0,94,0.00,RA,RA,0.03,0.0,WeatherDisplay:10.37,2013-07-26 03:19:00,
2013-07-25 23:29:00,62.8,61.3,30.04,East,101,0.0,0.0,95,0.00,RA,RA,0.03,0.0,WeatherDisplay:10.37,2013-07-26 03:29:00,
2013-07-25 23:39:00,62.5,61.0,30.05,East,101,0.0,0.0,95,0.00,RA,RA,0.03,0.0,WeatherDisplay:10.37,2013-07-26 03:39:00,
2013-07-25 23:43:00,62.3,60.8,30.05,East,101,0.0,0.0,95,0.00,RA,RA,0.03,0.0,WeatherDisplay:10.37,2013-07-26 03:43:00,
2013-07-25 23:49:00,62.2,60.7,30.05,East,101,0.0,0.0,95,0.00,RA,RA,0.03,0.0,WeatherDisplay:10.37,2013-07-26 03:49:00,
2013-07-25 23:59:00,62.0,60.6,30.05,East,101,0.0,0.0,95,0.00,CLR,CLR,0.00,0.0,WeatherDisplay:10.37,2013-07-26 03:59:00,